sensor_id;sensor_type;location;lat;lon;timestamp;pressure;altitude;pressure_sealevel;temperature;humidity
9091;BME280;4581;42.416;25.598;2023-05-01T00:01:45;66530.28;;;0.00;nan
9091;BME280;4581;42.416;25.598;2023-05-01T00:04:12;66525.72;;;0.00;nan
9091;BME280;4581;42.416;25.598;2023-05-01T00:06:39;66530.28;;;0.00;nan
9091;BME280;4581;42.416;25.598;2023-05-01T00:09:05;66527.25;;;0.00;nan
9091;BME280;4581;42.416;25.598;2023-05-01T00:11:33;66525.72;;;0.00;nan
9091;BME280;4581;42.416;25.598;2023-05-01T00:14:00;66524.19;;;0.00;nan
9091;BME280;4581;42.416;25.598;2023-05-01T00:16:27;66507.41;;;0.00;nan
9091;BME280;4581;42.416;25.598;2023-05-01T00:18:53;66501.31;;;0.00;nan
9091;BME280;4581;42.416;25.598;2023-05-01T00:21:20;66501.31;;;0.00;nan
9091;BME280;4581;42.416;25.598;2023-05-01T00:23:47;66510.47;;;0.00;nan
9091;BME280;4581;42.416;25.598;2023-05-01T00:26:13;66513.50;;;0.00;nan
9091;BME280;4581;42.416;25.598;2023-05-01T00:28:40;66519.63;;;0.00;nan
9091;BME280;4581;42.416;25.598;2023-05-01T00:31:07;66533.34;;;0.00;nan
9091;BME280;4581;42.416;25.598;2023-05-01T00:33:33;66534.88;;;0.00;nan
9091;BME280;4581;42.416;25.598;2023-05-01T00:36:00;66536.41;;;0.00;nan
9091;BME280;4581;42.416;25.598;2023-05-01T00:38:27;66545.56;;;0.00;nan
9091;BME280;4581;42.416;25.598;2023-05-01T00:40:53;66553.19;;;0.00;nan
9091;BME280;4581;42.416;25.598;2023-05-01T00:43:20;66565.38;;;0.00;nan
9091;BME280;4581;42.416;25.598;2023-05-01T00:45:47;66571.50;;;0.00;nan
9091;BME280;4581;42.416;25.598;2023-05-01T00:48:14;66574.53;;;0.00;nan
9091;BME280;4581;42.416;25.598;2023-05-01T00:50:43;66580.66;;;0.00;nan
9091;BME280;4581;42.416;25.598;2023-05-01T00:53:10;66588.28;;;0.00;nan
9091;BME280;4581;42.416;25.598;2023-05-01T00:55:40;66592.84;;;0.00;nan
9091;BME280;4581;42.416;25.598;2023-05-01T00:58:09;66594.38;;;0.00;nan
9091;BME280;4581;42.416;25.598;2023-05-01T01:00:36;66592.84;;;0.00;nan
9091;BME280;4581;42.416;25.598;2023-05-01T01:03:03;66603.53;;;0.00;nan
9091;BME280;4581;42.416;25.598;2023-05-01T01:05:31;66608.13;;;0.00;nan
9091;BME280;4581;42.416;25.598;2023-05-01T01:11:26;66621.84;;;0.00;nan
9091;BME280;4581;42.416;25.598;2023-05-01T01:14:05;66624.91;;;0.00;nan
9091;BME280;4581;42.416;25.598;2023-05-01T01:16:44;66637.09;;;0.00;nan
9091;BME280;4581;42.416;25.598;2023-05-01T01:22:20;66661.53;;;0.00;nan
9091;BME280;4581;42.416;25.598;2023-05-01T01:30:20;66666.09;;;0.00;nan
9091;BME280;4581;42.416;25.598;2023-05-01T01:35:35;66681.34;;;0.00;nan
9091;BME280;4581;42.416;25.598;2023-05-01T01:38:18;66684.41;;;0.00;nan
9091;BME280;4581;42.416;25.598;2023-05-01T01:40:58;66699.66;;;0.00;nan
9091;BME280;4581;42.416;25.598;2023-05-01T01:43:32;66705.78;;;0.00;nan
9091;BME280;4581;42.416;25.598;2023-05-01T01:46:05;66713.41;;;0.00;nan
9091;BME280;4581;42.416;25.598;2023-05-01T01:48:37;66704.25;;;0.00;nan
9091;BME280;4581;42.416;25.598;2023-05-01T01:51:14;66707.28;;;0.00;nan
9091;BME280;4581;42.416;25.598;2023-05-01T01:53:45;66705.78;;;0.00;nan
9091;BME280;4581;42.416;25.598;2023-05-01T01:56:16;66707.28;;;0.00;nan
9091;BME280;4581;42.416;25.598;2023-05-01T01:58:46;66704.25;;;0.00;nan
9091;BME280;4581;42.416;25.598;2023-05-01T02:01:14;66702.72;;;0.00;nan
9091;BME280;4581;42.416;25.598;2023-05-01T02:03:43;66695.09;;;0.00;nan
9091;BME280;4581;42.416;25.598;2023-05-01T02:06:12;66696.63;;;0.00;nan
9091;BME280;4581;42.416;25.598;2023-05-01T02:08:43;66690.50;;;0.00;nan
9091;BME280;4581;42.416;25.598;2023-05-01T02:11:13;66687.47;;;0.00;nan
9091;BME280;4581;42.416;25.598;2023-05-01T02:13:41;66687.47;;;0.00;nan
9091;BME280;4581;42.416;25.598;2023-05-01T02:16:10;66690.50;;;0.00;nan
9091;BME280;4581;42.416;25.598;2023-05-01T02:18:39;66693.56;;;0.00;nan
9091;BME280;4581;42.416;25.598;2023-05-01T02:21:06;66690.50;;;0.00;nan
9091;BME280;4581;42.416;25.598;2023-05-01T02:23:33;66696.63;;;0.00;nan
9091;BME280;4581;42.416;25.598;2023-05-01T02:26:01;66693.56;;;0.00;nan
9091;BME280;4581;42.416;25.598;2023-05-01T02:28:30;66699.66;;;0.00;nan
9091;BME280;4581;42.416;25.598;2023-05-01T02:30:57;66690.50;;;0.00;nan
9091;BME280;4581;42.416;25.598;2023-05-01T02:33:24;66675.25;;;0.00;nan
9091;BME280;4581;42.416;25.598;2023-05-01T02:35:51;66655.41;;;0.00;nan
9091;BME280;4581;42.416;25.598;2023-05-01T02:38:18;66641.69;;;0.00;nan
9091;BME280;4581;42.416;25.598;2023-05-01T02:40:51;66634.06;;;0.00;nan
9091;BME280;4581;42.416;25.598;2023-05-01T02:43:19;66640.16;;;0.00;nan
9091;BME280;4581;42.416;25.598;2023-05-01T02:45:50;66647.78;;;0.00;nan
9091;BME280;4581;42.416;25.598;2023-05-01T02:48:24;66663.03;;;0.00;nan
9091;BME280;4581;42.416;25.598;2023-05-01T02:50:54;66684.41;;;0.00;nan
9091;BME280;4581;42.416;25.598;2023-05-01T02:53:22;66701.19;;;0.00;nan
9091;BME280;4581;42.416;25.598;2023-05-01T02:55:49;66701.19;;;0.00;nan
9091;BME280;4581;42.416;25.598;2023-05-01T02:58:17;66705.78;;;0.00;nan
9091;BME280;4581;42.416;25.598;2023-05-01T03:00:44;66705.78;;;0.00;nan
9091;BME280;4581;42.416;25.598;2023-05-01T03:03:11;66721.03;;;0.00;nan
9091;BME280;4581;42.416;25.598;2023-05-01T03:05:38;66724.09;;;0.00;nan
9091;BME280;4581;42.416;25.598;2023-05-01T03:08:05;66724.09;;;0.00;nan
9091;BME280;4581;42.416;25.598;2023-05-01T03:10:33;66731.72;;;0.00;nan
9091;BME280;4581;42.416;25.598;2023-05-01T03:12:59;66728.66;;;0.00;nan
9091;BME280;4581;42.416;25.598;2023-05-01T03:15:26;66737.81;;;0.00;nan
9091;BME280;4581;42.416;25.598;2023-05-01T03:17:53;66737.81;;;0.00;nan
9091;BME280;4581;42.416;25.598;2023-05-01T03:20:20;66745.44;;;0.00;nan
9091;BME280;4581;42.416;25.598;2023-05-01T03:22:46;66748.50;;;0.00;nan
9091;BME280;4581;42.416;25.598;2023-05-01T03:25:13;66753.06;;;0.00;nan
9091;BME280;4581;42.416;25.598;2023-05-01T03:27:40;66763.75;;;0.00;nan
9091;BME280;4581;42.416;25.598;2023-05-01T03:30:08;66772.91;;;0.00;nan
9091;BME280;4581;42.416;25.598;2023-05-01T03:32:35;66769.84;;;0.00;nan
9091;BME280;4581;42.416;25.598;2023-05-01T03:35:02;66772.91;;;0.00;nan
9091;BME280;4581;42.416;25.598;2023-05-01T03:37:29;66780.53;;;0.00;nan
9091;BME280;4581;42.416;25.598;2023-05-01T03:39:56;66775.97;;;0.00;nan
9091;BME280;4581;42.416;25.598;2023-05-01T03:42:23;66775.97;;;0.00;nan
9091;BME280;4581;42.416;25.598;2023-05-01T03:44:49;66779.00;;;0.00;nan
9091;BME280;4581;42.416;25.598;2023-05-01T03:47:16;66775.97;;;0.00;nan
9091;BME280;4581;42.416;25.598;2023-05-01T03:49:44;66772.91;;;0.00;nan
9091;BME280;4581;42.416;25.598;2023-05-01T03:52:10;66779.00;;;0.00;nan
9091;BME280;4581;42.416;25.598;2023-05-01T03:54:38;66779.00;;;0.00;nan
9091;BME280;4581;42.416;25.598;2023-05-01T03:57:05;66788.16;;;0.00;nan
9091;BME280;4581;42.416;25.598;2023-05-01T03:59:31;66775.97;;;0.00;nan
9091;BME280;4581;42.416;25.598;2023-05-01T04:01:58;66779.00;;;0.00;nan
9091;BME280;4581;42.416;25.598;2023-05-01T04:04:25;66754.59;;;0.00;nan
9091;BME280;4581;42.416;25.598;2023-05-01T04:06:52;66760.69;;;0.00;nan
9091;BME280;4581;42.416;25.598;2023-05-01T04:09:18;66757.66;;;0.00;nan
9091;BME280;4581;42.416;25.598;2023-05-01T04:11:45;66754.59;;;0.00;nan
9091;BME280;4581;42.416;25.598;2023-05-01T04:14:12;66753.06;;;0.00;nan
9091;BME280;4581;42.416;25.598;2023-05-01T04:16:39;66739.34;;;0.00;nan
9091;BME280;4581;42.416;25.598;2023-05-01T04:19:06;66742.41;;;0.00;nan
9091;BME280;4581;42.416;25.598;2023-05-01T04:21:33;66736.28;;;0.00;nan
9091;BME280;4581;42.416;25.598;2023-05-01T04:24:00;66736.28;;;0.00;nan
9091;BME280;4581;42.416;25.598;2023-05-01T04:26:26;66719.50;;;0.00;nan
9091;BME280;4581;42.416;25.598;2023-05-01T04:28:53;66722.56;;;0.00;nan
9091;BME280;4581;42.416;25.598;2023-05-01T04:31:20;66716.44;;;0.00;nan
9091;BME280;4581;42.416;25.598;2023-05-01T04:33:47;66707.28;;;0.00;nan
9091;BME280;4581;42.416;25.598;2023-05-01T04:36:13;66702.72;;;0.00;nan
9091;BME280;4581;42.416;25.598;2023-05-01T04:38:40;66687.47;;;0.00;nan
9091;BME280;4581;42.416;25.598;2023-05-01T04:41:07;66696.63;;;0.00;nan
9091;BME280;4581;42.416;25.598;2023-05-01T04:43:33;66681.34;;;0.00;nan
9091;BME280;4581;42.416;25.598;2023-05-01T04:46:02;66676.78;;;0.00;nan
9091;BME280;4581;42.416;25.598;2023-05-01T04:48:29;66666.09;;;0.00;nan
9091;BME280;4581;42.416;25.598;2023-05-01T04:50:55;66652.38;;;0.00;nan
9091;BME280;4581;42.416;25.598;2023-05-01T04:53:23;66660.00;;;0.00;nan
9091;BME280;4581;42.416;25.598;2023-05-01T04:55:49;66644.72;;;0.00;nan
9091;BME280;4581;42.416;25.598;2023-05-01T04:58:16;66629.47;;;0.00;nan
9091;BME280;4581;42.416;25.598;2023-05-01T05:00:42;66621.84;;;0.00;nan
9091;BME280;4581;42.416;25.598;2023-05-01T05:03:09;66605.06;;;0.00;nan
9091;BME280;4581;42.416;25.598;2023-05-01T05:05:36;66594.38;;;0.00;nan
9091;BME280;4581;42.416;25.598;2023-05-01T05:08:03;66583.69;;;0.00;nan
9091;BME280;4581;42.416;25.598;2023-05-01T05:10:29;66577.59;;;0.00;nan
9091;BME280;4581;42.416;25.598;2023-05-01T05:12:57;66579.13;;;0.00;nan
9091;BME280;4581;42.416;25.598;2023-05-01T05:15:25;66602.00;;;0.00;nan
9091;BME280;4581;42.416;25.598;2023-05-01T05:17:51;66589.81;;;0.00;nan
9091;BME280;4581;42.416;25.598;2023-05-01T05:20:20;66585.22;;;0.00;nan
9091;BME280;4581;42.416;25.598;2023-05-01T05:22:47;66589.81;;;0.00;nan
9091;BME280;4581;42.416;25.598;2023-05-01T05:25:13;66602.00;;;0.00;nan
9091;BME280;4581;42.416;25.598;2023-05-01T05:27:41;66566.91;;;0.00;nan
9091;BME280;4581;42.416;25.598;2023-05-01T05:30:08;66533.34;;;0.00;nan
9091;BME280;4581;42.416;25.598;2023-05-01T05:32:35;66504.34;;;0.00;nan
9091;BME280;4581;42.416;25.598;2023-05-01T05:35:03;66470.78;;;0.00;nan
9091;BME280;4581;42.416;25.598;2023-05-01T05:37:31;66449.41;;;0.00;nan
9091;BME280;4581;42.416;25.598;2023-05-01T05:39:57;66431.13;;;0.00;nan
9091;BME280;4581;42.416;25.598;2023-05-01T05:42:24;66415.84;;;0.00;nan
9091;BME280;4581;42.416;25.598;2023-05-01T05:44:51;66386.84;;;0.00;nan
9091;BME280;4581;42.416;25.598;2023-05-01T05:47:18;66392.97;;;0.00;nan
9091;BME280;4581;42.416;25.598;2023-05-01T05:49:45;66354.81;;;0.00;nan
9091;BME280;4581;42.416;25.598;2023-05-01T05:52:12;66310.56;;;0.00;nan
9091;BME280;4581;42.416;25.598;2023-05-01T05:54:39;66266.31;;;0.00;nan
9091;BME280;4581;42.416;25.598;2023-05-01T05:57:05;66229.69;;;0.00;nan
9091;BME280;4581;42.416;25.598;2023-05-01T05:59:32;66240.38;;;0.00;nan
9091;BME280;4581;42.416;25.598;2023-05-01T06:01:59;66194.59;;;0.00;nan
9091;BME280;4581;42.416;25.598;2023-05-01T06:04:26;66159.50;;;0.00;nan
9091;BME280;4581;42.416;25.598;2023-05-01T06:06:53;66141.19;;;0.00;nan
9091;BME280;4581;42.416;25.598;2023-05-01T06:09:20;66136.63;;;0.00;nan
9091;BME280;4581;42.416;25.598;2023-05-01T06:11:46;66113.72;;;0.00;nan
9091;BME280;4581;42.416;25.598;2023-05-01T06:14:14;66100.00;;;0.00;nan
9091;BME280;4581;42.416;25.598;2023-05-01T06:16:41;66092.38;;;0.00;nan
9091;BME280;4581;42.416;25.598;2023-05-01T06:19:10;66119.84;;;0.00;nan
9091;BME280;4581;42.416;25.598;2023-05-01T06:21:37;66104.56;;;0.00;nan
9091;BME280;4581;42.416;25.598;2023-05-01T06:24:04;66113.72;;;0.00;nan
9091;BME280;4581;42.416;25.598;2023-05-01T06:26:31;66138.13;;;0.00;nan
9091;BME280;4581;42.416;25.598;2023-05-01T06:28:59;66165.59;;;0.00;nan
9091;BME280;4581;42.416;25.598;2023-05-01T06:31:26;66157.97;;;0.00;nan
9091;BME280;4581;42.416;25.598;2023-05-01T06:33:53;66150.34;;;0.00;nan
9091;BME280;4581;42.416;25.598;2023-05-01T06:36:19;66144.25;;;0.00;nan
9091;BME280;4581;42.416;25.598;2023-05-01T06:38:46;66147.28;;;0.00;nan
9091;BME280;4581;42.416;25.598;2023-05-01T06:41:15;66142.72;;;0.00;nan
9091;BME280;4581;42.416;25.598;2023-05-01T06:43:42;66154.94;;;0.00;nan
9091;BME280;4581;42.416;25.598;2023-05-01T06:46:08;66135.09;;;0.00;nan
9091;BME280;4581;42.416;25.598;2023-05-01T06:48:35;66133.56;;;0.00;nan
9091;BME280;4581;42.416;25.598;2023-05-01T06:51:02;66141.19;;;0.00;nan
9091;BME280;4581;42.416;25.598;2023-05-01T06:53:29;66110.69;;;0.00;nan
9091;BME280;4581;42.416;25.598;2023-05-01T06:55:56;66095.41;;;0.00;nan
9091;BME280;4581;42.416;25.598;2023-05-01T06:58:23;66104.56;;;0.00;nan
9091;BME280;4581;42.416;25.598;2023-05-01T07:00:52;66090.84;;;0.00;nan
9091;BME280;4581;42.416;25.598;2023-05-01T07:03:19;66092.38;;;0.00;nan
9091;BME280;4581;42.416;25.598;2023-05-01T07:05:45;66090.84;;;0.00;nan
9091;BME280;4581;42.416;25.598;2023-05-01T07:08:12;66084.72;;;0.00;nan
9091;BME280;4581;42.416;25.598;2023-05-01T07:10:39;66055.75;;;0.00;nan
9091;BME280;4581;42.416;25.598;2023-05-01T07:13:07;66031.31;;;0.00;nan
9091;BME280;4581;42.416;25.598;2023-05-01T07:15:34;66058.78;;;0.00;nan
9091;BME280;4581;42.416;25.598;2023-05-01T07:18:01;66063.38;;;0.00;nan
9091;BME280;4581;42.416;25.598;2023-05-01T07:20:31;66081.69;;;0.00;nan
9091;BME280;4581;42.416;25.598;2023-05-01T07:22:58;66067.94;;;0.00;nan
9091;BME280;4581;42.416;25.598;2023-05-01T07:25:25;66048.13;;;0.00;nan
9091;BME280;4581;42.416;25.598;2023-05-01T07:27:51;66046.59;;;0.00;nan
9091;BME280;4581;42.416;25.598;2023-05-01T07:30:19;66046.59;;;0.00;nan
9091;BME280;4581;42.416;25.598;2023-05-01T07:32:46;66034.38;;;0.00;nan
9091;BME280;4581;42.416;25.598;2023-05-01T07:35:13;66017.59;;;0.00;nan
9091;BME280;4581;42.416;25.598;2023-05-01T07:37:40;66034.38;;;0.00;nan
9091;BME280;4581;42.416;25.598;2023-05-01T07:40:07;66057.28;;;0.00;nan
9091;BME280;4581;42.416;25.598;2023-05-01T07:42:33;66035.91;;;0.00;nan
9091;BME280;4581;42.416;25.598;2023-05-01T07:45:00;66054.22;;;0.00;nan
9091;BME280;4581;42.416;25.598;2023-05-01T07:47:27;66028.28;;;0.00;nan
9091;BME280;4581;42.416;25.598;2023-05-01T07:49:54;66037.44;;;0.00;nan
9091;BME280;4581;42.416;25.598;2023-05-01T07:52:21;66071.00;;;0.00;nan
9091;BME280;4581;42.416;25.598;2023-05-01T07:54:49;66043.53;;;0.00;nan
9091;BME280;4581;42.416;25.598;2023-05-01T07:57:16;66023.69;;;0.00;nan
9091;BME280;4581;42.416;25.598;2023-05-01T07:59:42;65997.75;;;0.00;nan
9091;BME280;4581;42.416;25.598;2023-05-01T08:02:09;66000.81;;;0.00;nan
9091;BME280;4581;42.416;25.598;2023-05-01T08:04:36;66022.16;;;0.00;nan
9091;BME280;4581;42.416;25.598;2023-05-01T08:07:03;65980.97;;;0.00;nan
9091;BME280;4581;42.416;25.598;2023-05-01T08:09:29;65964.19;;;0.00;nan
9091;BME280;4581;42.416;25.598;2023-05-01T08:11:56;65958.09;;;0.00;nan
9091;BME280;4581;42.416;25.598;2023-05-01T08:14:23;65955.03;;;0.00;nan
9091;BME280;4581;42.416;25.598;2023-05-01T08:16:49;65918.41;;;0.00;nan
9091;BME280;4581;42.416;25.598;2023-05-01T08:19:21;65948.94;;;0.00;nan
9091;BME280;4581;42.416;25.598;2023-05-01T08:21:48;65951.97;;;0.00;nan
9091;BME280;4581;42.416;25.598;2023-05-01T08:24:15;65955.03;;;0.00;nan
9091;BME280;4581;42.416;25.598;2023-05-01T08:26:42;65924.50;;;0.00;nan
9091;BME280;4581;42.416;25.598;2023-05-01T08:29:08;65901.63;;;0.00;nan
9091;BME280;4581;42.416;25.598;2023-05-01T08:31:35;65900.09;;;0.00;nan
9091;BME280;4581;42.416;25.598;2023-05-01T08:34:04;65890.94;;;0.00;nan
9091;BME280;4581;42.416;25.598;2023-05-01T08:36:31;65897.06;;;0.00;nan
9091;BME280;4581;42.416;25.598;2023-05-01T08:38:58;65868.06;;;0.00;nan
9091;BME280;4581;42.416;25.598;2023-05-01T08:41:26;65854.31;;;0.00;nan
9091;BME280;4581;42.416;25.598;2023-05-01T08:43:55;65865.00;;;0.00;nan
9091;BME280;4581;42.416;25.598;2023-05-01T08:46:46;65877.22;;;0.00;nan
9091;BME280;4581;42.416;25.598;2023-05-01T08:49:15;65921.47;;;0.00;nan
9091;BME280;4581;42.416;25.598;2023-05-01T08:51:45;65938.25;;;0.00;nan
9091;BME280;4581;42.416;25.598;2023-05-01T08:54:16;65942.81;;;0.00;nan
9091;BME280;4581;42.416;25.598;2023-05-01T08:56:45;65947.41;;;0.00;nan
9091;BME280;4581;42.416;25.598;2023-05-01T08:59:13;65941.31;;;0.00;nan
9091;BME280;4581;42.416;25.598;2023-05-01T09:01:41;65956.56;;;0.00;nan
9091;BME280;4581;42.416;25.598;2023-05-01T09:04:09;65953.50;;;0.00;nan
9091;BME280;4581;42.416;25.598;2023-05-01T09:06:37;65961.13;;;0.00;nan
9091;BME280;4581;42.416;25.598;2023-05-01T09:09:04;65994.72;;;0.00;nan
9091;BME280;4581;42.416;25.598;2023-05-01T09:11:31;66016.06;;;0.00;nan
9091;BME280;4581;42.416;25.598;2023-05-01T09:13:59;66022.16;;;0.00;nan
9091;BME280;4581;42.416;25.598;2023-05-01T09:16:28;66008.44;;;0.00;nan
9091;BME280;4581;42.416;25.598;2023-05-01T09:18:54;65997.75;;;0.00;nan
9091;BME280;4581;42.416;25.598;2023-05-01T09:21:22;65991.66;;;0.00;nan
9091;BME280;4581;42.416;25.598;2023-05-01T09:23:50;65979.44;;;0.00;nan
9091;BME280;4581;42.416;25.598;2023-05-01T09:26:17;65974.88;;;0.00;nan
9091;BME280;4581;42.416;25.598;2023-05-01T09:28:44;65973.34;;;0.00;nan
9091;BME280;4581;42.416;25.598;2023-05-01T09:31:21;65941.31;;;0.00;nan
9091;BME280;4581;42.416;25.598;2023-05-01T09:33:59;65919.94;;;0.00;nan
9091;BME280;4581;42.416;25.598;2023-05-01T09:36:27;65950.47;;;0.00;nan
9091;BME280;4581;42.416;25.598;2023-05-01T09:38:57;65999.28;;;0.00;nan
9091;BME280;4581;42.416;25.598;2023-05-01T09:41:23;65991.66;;;0.00;nan
9091;BME280;4581;42.416;25.598;2023-05-01T09:43:55;66031.31;;;0.00;nan
9091;BME280;4581;42.416;25.598;2023-05-01T09:46:23;66028.28;;;0.00;nan
9091;BME280;4581;42.416;25.598;2023-05-01T09:48:58;66035.91;;;0.00;nan
9091;BME280;4581;42.416;25.598;2023-05-01T09:51:30;66013.03;;;0.00;nan
9091;BME280;4581;42.416;25.598;2023-05-01T09:54:01;66026.75;;;0.00;nan
9091;BME280;4581;42.416;25.598;2023-05-01T09:56:31;66022.16;;;0.00;nan
9091;BME280;4581;42.416;25.598;2023-05-01T09:59:17;66043.53;;;0.00;nan
9091;BME280;4581;42.416;25.598;2023-05-01T10:01:46;66043.53;;;0.00;nan
9091;BME280;4581;42.416;25.598;2023-05-01T10:04:14;66029.81;;;0.00;nan
9091;BME280;4581;42.416;25.598;2023-05-01T10:06:41;66035.91;;;0.00;nan
9091;BME280;4581;42.416;25.598;2023-05-01T10:09:08;66052.69;;;0.00;nan
9091;BME280;4581;42.416;25.598;2023-05-01T10:11:50;66055.75;;;0.00;nan
9091;BME280;4581;42.416;25.598;2023-05-01T10:14:21;66052.69;;;0.00;nan
9091;BME280;4581;42.416;25.598;2023-05-01T10:16:49;66057.28;;;0.00;nan
9091;BME280;4581;42.416;25.598;2023-05-01T10:19:19;66058.78;;;0.00;nan
9091;BME280;4581;42.416;25.598;2023-05-01T10:21:46;66064.91;;;0.00;nan
9091;BME280;4581;42.416;25.598;2023-05-01T10:24:13;66061.84;;;0.00;nan
9091;BME280;4581;42.416;25.598;2023-05-01T10:26:42;66064.91;;;0.00;nan
9091;BME280;4581;42.416;25.598;2023-05-01T10:29:09;66037.44;;;0.00;nan
9091;BME280;4581;42.416;25.598;2023-05-01T10:31:37;65988.59;;;0.00;nan
9091;BME280;4581;42.416;25.598;2023-05-01T10:34:06;65961.13;;;0.00;nan
9091;BME280;4581;42.416;25.598;2023-05-01T10:36:54;65929.09;;;0.00;nan
9091;BME280;4581;42.416;25.598;2023-05-01T10:39:32;65861.97;;;0.00;nan
9091;BME280;4581;42.416;25.598;2023-05-01T10:42:00;65811.59;;;0.00;nan
9091;BME280;4581;42.416;25.598;2023-05-01T10:44:29;65802.44;;;0.00;nan
9091;BME280;4581;42.416;25.598;2023-05-01T10:46:56;65750.56;;;0.00;nan
9091;BME280;4581;42.416;25.598;2023-05-01T10:49:23;65678.84;;;0.00;nan
9091;BME280;4581;42.416;25.598;2023-05-01T10:51:56;65674.28;;;0.00;nan
9091;BME280;4581;42.416;25.598;2023-05-01T10:54:25;65787.19;;;0.00;nan
9091;BME280;4581;42.416;25.598;2023-05-01T10:56:56;65851.28;;;0.00;nan
9091;BME280;4581;42.416;25.598;2023-05-01T10:59:24;65878.75;;;0.00;nan
9091;BME280;4581;42.416;25.598;2023-05-01T11:01:52;65904.69;;;0.00;nan
9091;BME280;4581;42.416;25.598;2023-05-01T11:12:03;65878.75;;;0.00;nan
9091;BME280;4581;42.416;25.598;2023-05-01T11:20:44;65811.59;;;0.00;nan
9091;BME280;4581;42.416;25.598;2023-05-01T11:23:16;65788.72;;;0.00;nan
9091;BME280;4581;42.416;25.598;2023-05-01T11:25:44;65768.88;;;0.00;nan
9091;BME280;4581;42.416;25.598;2023-05-01T11:28:17;65762.78;;;0.00;nan
9091;BME280;4581;42.416;25.598;2023-05-01T11:30:44;65803.97;;;0.00;nan
9091;BME280;4581;42.416;25.598;2023-05-01T11:33:12;65782.59;;;0.00;nan
9091;BME280;4581;42.416;25.598;2023-05-01T11:35:39;65747.50;;;0.00;nan
9091;BME280;4581;42.416;25.598;2023-05-01T11:38:15;65718.53;;;0.00;nan
9091;BME280;4581;42.416;25.598;2023-05-01T11:40:44;65732.25;;;0.00;nan
9091;BME280;4581;42.416;25.598;2023-05-01T11:43:11;65709.38;;;0.00;nan
9091;BME280;4581;42.416;25.598;2023-05-01T11:45:38;65680.38;;;0.00;nan
9091;BME280;4581;42.416;25.598;2023-05-01T11:48:13;65628.50;;;0.00;nan
9091;BME280;4581;42.416;25.598;2023-05-01T11:50:41;65633.06;;;0.00;nan
9091;BME280;4581;42.416;25.598;2023-05-01T11:53:12;65596.44;;;0.00;nan
9091;BME280;4581;42.416;25.598;2023-05-01T11:55:43;65662.06;;;0.00;nan
9091;BME280;4581;42.416;25.598;2023-05-01T11:58:11;65649.84;;;0.00;nan
9091;BME280;4581;42.416;25.598;2023-05-01T12:00:42;65637.66;;;0.00;nan
9091;BME280;4581;42.416;25.598;2023-05-01T12:03:11;65659.00;;;0.00;nan
9091;BME280;4581;42.416;25.598;2023-05-01T12:05:41;65659.00;;;0.00;nan
9091;BME280;4581;42.416;25.598;2023-05-01T12:08:14;65669.69;;;0.00;nan
9091;BME280;4581;42.416;25.598;2023-05-01T12:10:47;65628.50;;;0.00;nan
9091;BME280;4581;42.416;25.598;2023-05-01T12:13:15;65646.81;;;0.00;nan
9091;BME280;4581;42.416;25.598;2023-05-01T12:15:44;65649.84;;;0.00;nan
9091;BME280;4581;42.416;25.598;2023-05-01T12:18:12;65646.81;;;0.00;nan
9091;BME280;4581;42.416;25.598;2023-05-01T12:20:44;65651.38;;;0.00;nan
9091;BME280;4581;42.416;25.598;2023-05-01T12:23:13;65689.53;;;0.00;nan
9091;BME280;4581;42.416;25.598;2023-05-01T12:25:45;65726.16;;;0.00;nan
9091;BME280;4581;42.416;25.598;2023-05-01T12:28:13;65718.53;;;0.00;nan
9091;BME280;4581;42.416;25.598;2023-05-01T12:30:41;65741.41;;;0.00;nan
9091;BME280;4581;42.416;25.598;2023-05-01T12:33:13;65749.03;;;0.00;nan
9091;BME280;4581;42.416;25.598;2023-05-01T12:35:42;65724.63;;;0.00;nan
9091;BME280;4581;42.416;25.598;2023-05-01T12:38:13;65741.41;;;0.00;nan
9091;BME280;4581;42.416;25.598;2023-05-01T12:40:59;65756.66;;;0.00;nan
9091;BME280;4581;42.416;25.598;2023-05-01T12:43:32;65782.59;;;0.00;nan
9091;BME280;4581;42.416;25.598;2023-05-01T12:45:59;65822.28;;;0.00;nan
9091;BME280;4581;42.416;25.598;2023-05-01T12:48:26;65822.28;;;0.00;nan
9091;BME280;4581;42.416;25.598;2023-05-01T12:50:53;65832.97;;;0.00;nan
9091;BME280;4581;42.416;25.598;2023-05-01T12:53:22;65860.44;;;0.00;nan
9091;BME280;4581;42.416;25.598;2023-05-01T12:55:51;65880.25;;;0.00;nan
9091;BME280;4581;42.416;25.598;2023-05-01T12:58:18;65871.09;;;0.00;nan
9091;BME280;4581;42.416;25.598;2023-05-01T13:00:48;65877.22;;;0.00;nan
9091;BME280;4581;42.416;25.598;2023-05-01T13:03:22;65880.25;;;0.00;nan
9091;BME280;4581;42.416;25.598;2023-05-01T13:05:51;65901.63;;;0.00;nan
9091;BME280;4581;42.416;25.598;2023-05-01T13:08:36;65898.56;;;0.00;nan
9091;BME280;4581;42.416;25.598;2023-05-01T13:11:16;65903.16;;;0.00;nan
9091;BME280;4581;42.416;25.598;2023-05-01T13:13:44;65907.72;;;0.00;nan
9091;BME280;4581;42.416;25.598;2023-05-01T13:16:15;65906.22;;;0.00;nan
9091;BME280;4581;42.416;25.598;2023-05-01T13:18:49;65918.41;;;0.00;nan
9091;BME280;4581;42.416;25.598;2023-05-01T13:21:18;65907.72;;;0.00;nan
9091;BME280;4581;42.416;25.598;2023-05-01T13:23:54;65912.31;;;0.00;nan
9091;BME280;4581;42.416;25.598;2023-05-01T13:26:30;65910.78;;;0.00;nan
9091;BME280;4581;42.416;25.598;2023-05-01T13:28:59;65907.72;;;0.00;nan
9091;BME280;4581;42.416;25.598;2023-05-01T13:31:27;65903.16;;;0.00;nan
9091;BME280;4581;42.416;25.598;2023-05-01T13:33:56;65897.06;;;0.00;nan
9091;BME280;4581;42.416;25.598;2023-05-01T13:36:24;65901.63;;;0.00;nan
9091;BME280;4581;42.416;25.598;2023-05-01T13:38:54;65894.00;;;0.00;nan
9091;BME280;4581;42.416;25.598;2023-05-01T13:41:23;65890.94;;;0.00;nan
9091;BME280;4581;42.416;25.598;2023-05-01T13:43:54;65881.78;;;0.00;nan
9091;BME280;4581;42.416;25.598;2023-05-01T13:46:23;65909.25;;;0.00;nan
9091;BME280;4581;42.416;25.598;2023-05-01T13:48:52;65913.84;;;0.00;nan
9091;BME280;4581;42.416;25.598;2023-05-01T13:51:21;65918.41;;;0.00;nan
9091;BME280;4581;42.416;25.598;2023-05-01T13:53:48;65923.00;;;0.00;nan
9091;BME280;4581;42.416;25.598;2023-05-01T13:56:15;65932.16;;;0.00;nan
9091;BME280;4581;42.416;25.598;2023-05-01T13:58:42;65935.19;;;0.00;nan
9091;BME280;4581;42.416;25.598;2023-05-01T14:01:18;65944.34;;;0.00;nan
9091;BME280;4581;42.416;25.598;2023-05-01T14:03:46;65948.94;;;0.00;nan
9091;BME280;4581;42.416;25.598;2023-05-01T14:06:15;65948.94;;;0.00;nan
9091;BME280;4581;42.416;25.598;2023-05-01T14:08:43;65948.94;;;0.00;nan
9091;BME280;4581;42.416;25.598;2023-05-01T14:11:10;65948.94;;;0.00;nan
9091;BME280;4581;42.416;25.598;2023-05-01T14:13:42;65967.25;;;0.00;nan
9091;BME280;4581;42.416;25.598;2023-05-01T14:16:31;65970.28;;;0.00;nan
9091;BME280;4581;42.416;25.598;2023-05-01T14:18:57;65961.13;;;0.00;nan
9091;BME280;4581;42.416;25.598;2023-05-01T14:21:25;65961.13;;;0.00;nan